VIDN

Details ICAO VIDN (DED)
Name DEHRADUN
Region India
Timezone Asia/Kolkata (UTC+5.5)
Plans Departing 6
Arriving 6
Stats Elevation 1,831 ft / 558 m (AMSL)
Location 30.189689° 78.180256°
Runways 1
Magnetic Variation 1.418° E
Sunrise 2017-05-24 23:49:57 UTC / 2017-05-25 05:19:57 Local
Sunset 2017-05-25 13:41:22 UTC / 2017-05-25 19:11:22 Local
Advertisement - Login to hide

Runways

ID Width Length Bearing (true) Bearing (mag) Surface Threshold Offset Overrun Length
08 88 ft / 27 m 3,673 ft / 1,119 m 79.66° 78.24° Asphalt 350 ft / 107 m 0 ft / 0 m
26 88 ft / 27 m 3,673 ft / 1,119 m 259.67° 258.25° Asphalt 500 ft / 152 m 0 ft / 0 m

Map

Weather


0- 5 10 15 20 25 30 35+ Temperature / ° C

Clouds and Precipitation
Forecast for 2017-05-25 06:00 UTC. Updated an hour ago

Ground ~20,000 ft ~40,000 ft Winds

METAR

VIDN 250430Z 24003KT 6000 NSC 33/17 Q1006

TAF

Not found

Frequencies

Tower 122.30 MHz TWR
Warning: Do not use this data for real-world aviation or navigation. No guarantee of current accuracy is given.